createdAt,value
2018-06-05T00:00:00.897Z,26.30
2018-06-05T00:02:28.209Z,27.37
2018-06-05T00:04:55.576Z,26.83
2018-06-05T00:07:22.892Z,28.60
2018-06-05T00:09:50.239Z,28.93
2018-06-05T00:12:17.552Z,28.00
2018-06-05T00:14:44.953Z,31.90
2018-06-05T00:17:12.268Z,29.47
2018-06-05T00:19:39.650Z,27.07
2018-06-05T00:22:07.110Z,26.57
2018-06-05T00:24:34.545Z,27.70
2018-06-05T00:27:01.897Z,26.60
2018-06-05T00:29:29.396Z,25.63
2018-06-05T00:31:56.722Z,26.83
2018-06-05T00:34:24.045Z,26.80
2018-06-05T00:36:51.382Z,26.47
2018-06-05T00:39:18.709Z,26.77
2018-06-05T00:41:46.055Z,33.80
2018-06-05T00:44:13.413Z,31.47
2018-06-05T00:46:40.750Z,32.30
2018-06-05T00:49:08.098Z,30.50
2018-06-05T00:51:46.968Z,23.37
2018-06-05T00:54:14.448Z,27.30
2018-06-05T00:56:41.758Z,26.07
2018-06-05T00:59:09.061Z,27.47
2018-06-05T01:01:36.542Z,24.30
2018-06-05T01:04:03.861Z,26.20
2018-06-05T01:06:31.191Z,25.13
2018-06-05T01:08:58.505Z,23.23
2018-06-05T01:11:25.815Z,22.60
2018-06-05T01:13:53.145Z,23.20
2018-06-05T01:16:20.457Z,22.23
2018-06-05T01:18:47.794Z,23.27
2018-06-05T01:21:15.101Z,21.60
2018-06-05T01:23:42.421Z,20.27
2018-06-05T01:26:09.739Z,22.80
2018-06-05T01:28:37.072Z,21.90
2018-06-05T01:31:04.405Z,21.43
2018-06-05T01:33:31.741Z,22.40
2018-06-05T01:35:59.061Z,22.17
2018-06-05T01:38:26.393Z,27.00
2018-06-05T01:40:53.741Z,23.37
2018-06-05T01:43:21.054Z,25.33
2018-06-05T01:45:48.733Z,24.17
2018-06-05T01:48:16.046Z,23.10
2018-06-05T01:50:43.365Z,25.87
2018-06-05T01:53:10.757Z,25.63
2018-06-05T01:55:38.184Z,27.37
2018-06-05T01:58:05.577Z,26.67
2018-06-05T02:00:32.912Z,26.93
2018-06-05T02:03:00.234Z,30.63
2018-06-05T02:05:27.582Z,29.40
2018-06-05T02:07:54.953Z,31.63
2018-06-05T02:10:22.321Z,28.30
2018-06-05T02:12:49.642Z,29.03
2018-06-05T02:15:16.949Z,26.80
2018-06-05T02:17:44.273Z,30.80
2018-06-05T02:20:11.590Z,29.50
2018-06-05T02:22:38.917Z,27.70
2018-06-05T02:25:06.225Z,22.90
2018-06-05T02:27:33.561Z,23.07
2018-06-05T02:30:00.889Z,21.53
2018-06-05T02:32:28.230Z,20.60
2018-06-05T02:34:55.585Z,21.33
2018-06-05T02:37:22.910Z,20.70
2018-06-05T02:39:50.280Z,21.20
2018-06-05T02:42:17.601Z,19.83
2018-06-05T02:44:45.013Z,22.13
2018-06-05T02:47:12.329Z,24.47
2018-06-05T02:49:39.638Z,20.37
2018-06-05T02:52:06.965Z,21.33
2018-06-05T02:54:34.274Z,24.73
2018-06-05T02:57:01.733Z,24.40
2018-06-05T02:59:29.036Z,23.90
2018-06-05T03:01:56.469Z,21.90
2018-06-05T03:04:23.778Z,24.27
2018-06-05T03:06:51.109Z,22.47
2018-06-05T03:09:18.445Z,23.63
2018-06-05T03:11:45.765Z,23.30
2018-06-05T03:14:13.153Z,20.13
2018-06-05T03:16:40.477Z,26.37
2018-06-05T03:19:07.777Z,23.10
2018-06-05T03:21:35.097Z,22.33
2018-06-05T03:24:02.539Z,24.53
2018-06-05T03:26:29.853Z,24.07
2018-06-05T03:28:57.193Z,23.20
2018-06-05T03:31:24.518Z,27.70
2018-06-05T03:33:51.842Z,29.00
2018-06-05T03:36:19.173Z,19.70
2018-06-05T03:38:46.485Z,19.00
2018-06-05T03:41:13.882Z,18.97
2018-06-05T03:43:41.261Z,17.53
2018-06-05T03:46:08.637Z,17.30
2018-06-05T03:48:35.953Z,13.67
2018-06-05T03:51:03.299Z,14.30
2018-06-05T03:53:30.611Z,16.10
2018-06-05T03:55:57.930Z,15.43
2018-06-05T03:58:25.238Z,17.40
2018-06-05T04:00:52.553Z,13.87
2018-06-05T04:03:19.981Z,14.37
2018-06-05T04:05:47.298Z,13.13
2018-06-05T04:08:14.621Z,15.50
2018-06-05T04:10:41.962Z,14.00
2018-06-05T04:13:09.269Z,16.60
2018-06-05T04:15:36.602Z,14.60
2018-06-05T04:18:03.970Z,18.80
2018-06-05T04:20:31.289Z,13.70
2018-06-05T04:22:58.590Z,15.97
2018-06-05T04:25:25.914Z,12.97
2018-06-05T04:27:53.321Z,14.47
2018-06-05T04:30:20.637Z,11.37
2018-06-05T04:32:47.981Z,13.47
2018-06-05T04:35:15.361Z,12.60
2018-06-05T04:37:42.685Z,12.37
2018-06-05T04:40:10.120Z,15.87
2018-06-05T04:42:37.433Z,12.80
2018-06-05T04:47:38.795Z,12.40
2018-06-05T04:50:06.180Z,17.80
2018-06-05T04:52:33.486Z,18.53
2018-06-05T04:55:00.822Z,22.57
2018-06-05T04:57:28.202Z,16.40
2018-06-05T04:59:55.589Z,10.97
2018-06-05T05:02:22.905Z,12.53
2018-06-05T05:04:50.301Z,12.13
2018-06-05T05:07:17.938Z,13.97
2018-06-05T05:09:45.242Z,20.60
2018-06-05T05:12:12.573Z,16.30
2018-06-05T05:14:39.890Z,17.70
2018-06-05T05:17:07.241Z,17.47
2018-06-05T05:19:34.557Z,15.03
2018-06-05T05:22:01.996Z,14.93
2018-06-05T05:24:29.293Z,16.43
2018-06-05T05:26:56.694Z,20.83
2018-06-05T05:29:24.017Z,16.30
2018-06-05T05:31:51.539Z,14.97
2018-06-05T05:34:18.845Z,15.73
2018-06-05T05:36:46.164Z,16.30
2018-06-05T05:39:13.710Z,15.37
2018-06-05T05:41:41.033Z,19.00
2018-06-05T05:44:08.345Z,15.67
2018-06-05T05:46:35.673Z,18.90
2018-06-05T05:49:03.134Z,14.67
2018-06-05T05:51:30.548Z,14.87
2018-06-05T05:53:57.858Z,14.50
2018-06-05T05:56:25.954Z,15.17
2018-06-05T05:58:53.308Z,16.20
2018-06-05T06:01:20.638Z,19.03
2018-06-05T06:03:48.014Z,16.90
2018-06-05T06:06:15.306Z,16.50
2018-06-05T06:08:42.625Z,15.37
2018-06-05T06:11:10.021Z,15.53
2018-06-05T06:13:37.345Z,15.37
2018-06-05T06:16:04.742Z,12.40
2018-06-05T06:18:32.097Z,13.00
2018-06-05T06:20:59.546Z,14.33
2018-06-05T06:23:26.881Z,14.47
2018-06-05T06:25:54.493Z,11.93
2018-06-05T06:28:21.951Z,14.77
2018-06-05T06:30:49.307Z,15.30
2018-06-05T06:33:16.641Z,13.60
2018-06-05T06:35:43.979Z,13.23
2018-06-05T06:38:11.349Z,14.23
2018-06-05T06:40:38.716Z,15.73
2018-06-05T06:43:06.073Z,17.17
2018-06-05T06:45:33.398Z,16.70
2018-06-05T06:48:00.770Z,16.13
2018-06-05T06:50:28.205Z,14.03
2018-06-05T06:52:55.530Z,15.27
2018-06-05T06:55:22.847Z,18.07
2018-06-05T06:57:50.212Z,14.77
2018-06-05T07:00:17.537Z,13.77
2018-06-05T07:02:44.864Z,13.23
2018-06-05T07:05:12.205Z,12.77
2018-06-05T07:07:39.537Z,12.77
2018-06-05T07:10:06.897Z,17.07
2018-06-05T07:12:34.202Z,14.43
2018-06-05T07:15:01.514Z,14.27
2018-06-05T07:17:28.834Z,15.20
2018-06-05T07:19:56.221Z,16.50
2018-06-05T07:22:23.567Z,12.77
2018-06-05T07:24:50.909Z,16.67
2018-06-05T07:27:18.232Z,13.30
2018-06-05T07:29:45.568Z,15.10
2018-06-05T07:32:12.898Z,15.17
2018-06-05T07:34:40.221Z,17.10
2018-06-05T07:37:07.845Z,14.43
2018-06-05T07:39:35.169Z,15.80
2018-06-05T07:42:02.501Z,13.47
2018-06-05T07:44:29.988Z,17.90
2018-06-05T07:46:57.309Z,15.73
2018-06-05T07:49:24.617Z,13.37
2018-06-05T07:51:51.984Z,20.40
2018-06-05T07:54:19.302Z,12.13
2018-06-05T07:56:46.624Z,14.87
2018-06-05T07:59:14.050Z,15.40
2018-06-05T08:01:41.381Z,12.17
2018-06-05T08:04:08.695Z,12.67
2018-06-05T08:06:36.137Z,15.40
2018-06-05T08:09:05.743Z,14.60
2018-06-05T08:11:33.060Z,15.10
2018-06-05T08:14:00.373Z,13.33
2018-06-05T08:16:27.704Z,17.03
2018-06-05T08:18:55.198Z,14.63
2018-06-05T08:21:22.935Z,16.93
2018-06-05T08:23:50.273Z,16.17
2018-06-05T08:26:17.589Z,17.63
2018-06-05T08:28:44.924Z,18.53
2018-06-05T08:31:12.237Z,16.53
2018-06-05T08:33:39.630Z,14.47
2018-06-05T08:36:07.201Z,17.53
2018-06-05T08:38:34.521Z,13.87
2018-06-05T08:41:01.893Z,15.67
2018-06-05T08:43:29.197Z,17.20
2018-06-05T08:45:56.630Z,17.70
2018-06-05T08:48:23.947Z,15.97
2018-06-05T08:50:51.289Z,15.93
2018-06-05T08:53:18.600Z,17.50
2018-06-05T08:55:45.914Z,18.07
2018-06-05T08:58:13.241Z,19.20
2018-06-05T09:00:40.566Z,18.57
2018-06-05T09:03:07.886Z,21.83
2018-06-05T09:05:35.226Z,19.77
2018-06-05T09:08:02.642Z,21.73
2018-06-05T09:10:30.009Z,20.97
2018-06-05T09:12:57.750Z,19.40
2018-06-05T09:15:25.072Z,18.70
2018-06-05T09:17:52.469Z,21.47
2018-06-05T09:20:19.855Z,22.73
2018-06-05T09:22:47.193Z,22.13
2018-06-05T09:25:14.554Z,23.03
2018-06-05T09:27:41.856Z,22.30
2018-06-05T09:30:09.647Z,21.07
2018-06-05T09:32:36.998Z,21.70
2018-06-05T09:35:04.359Z,17.40
2018-06-05T09:37:31.850Z,12.80
2018-06-05T09:39:59.158Z,18.50
2018-06-05T09:42:26.481Z,18.87
2018-06-05T09:44:53.933Z,19.73
2018-06-05T09:47:21.295Z,20.90
2018-06-05T09:49:48.625Z,18.10
2018-06-05T09:52:15.946Z,23.07
2018-06-05T09:54:43.288Z,22.90
2018-06-05T09:57:10.605Z,22.80
2018-06-05T09:59:37.929Z,22.23
2018-06-05T10:02:05.259Z,19.27
2018-06-05T10:04:32.590Z,19.73
2018-06-05T10:06:59.914Z,19.47
2018-06-05T10:09:27.230Z,18.33
2018-06-05T10:11:54.584Z,19.17
2018-06-05T10:14:21.936Z,19.27
2018-06-05T10:16:49.309Z,17.77
2018-06-05T10:19:16.617Z,16.40
2018-06-05T10:21:43.933Z,18.93
2018-06-05T10:24:11.247Z,15.87
2018-06-05T10:26:38.599Z,17.97
2018-06-05T10:29:06.033Z,13.27
2018-06-05T10:31:33.358Z,16.40
2018-06-05T10:34:00.766Z,14.80
2018-06-05T10:36:28.101Z,19.47
2018-06-05T10:38:55.495Z,14.37
2018-06-05T10:41:22.818Z,14.17
2018-06-05T10:43:50.173Z,14.83
2018-06-05T10:46:17.653Z,14.43
2018-06-05T10:48:45.017Z,14.00
2018-06-05T10:51:12.611Z,15.60
2018-06-05T10:53:40.154Z,15.00
2018-06-05T10:56:07.640Z,13.70
2018-06-05T10:58:34.949Z,15.23
2018-06-05T11:01:02.274Z,15.70
2018-06-05T11:03:29.596Z,16.40
2018-06-05T11:05:56.957Z,15.30
2018-06-05T11:08:24.286Z,13.70
2018-06-05T11:10:51.602Z,14.87
2018-06-05T11:13:18.929Z,14.47
2018-06-05T11:15:46.258Z,15.43
2018-06-05T11:18:13.960Z,14.60
2018-06-05T11:20:41.404Z,14.83
2018-06-05T11:23:08.729Z,14.90
2018-06-05T11:25:36.057Z,15.40
2018-06-05T11:28:03.592Z,20.13
2018-06-05T11:30:30.919Z,15.47
2018-06-05T11:32:58.249Z,13.20
2018-06-05T11:35:25.646Z,14.70
2018-06-05T11:37:53.245Z,15.07
2018-06-05T11:40:20.615Z,14.47
2018-06-05T11:42:48.013Z,15.43
2018-06-05T11:45:15.365Z,17.53
2018-06-05T11:47:42.682Z,15.80
2018-06-05T11:50:10.041Z,14.27
2018-06-05T11:52:37.373Z,14.07
2018-06-05T11:55:04.742Z,15.07
2018-06-05T11:57:32.101Z,12.90
2018-06-05T11:59:59.417Z,15.93
2018-06-05T12:02:26.721Z,14.60
2018-06-05T12:04:54.197Z,13.10
2018-06-05T12:07:21.811Z,11.63
2018-06-05T12:09:49.149Z,15.77
2018-06-05T12:12:16.591Z,11.50
2018-06-05T12:14:43.925Z,11.03
2018-06-05T12:17:11.273Z,14.33
2018-06-05T12:19:38.586Z,12.37
2018-06-05T12:22:05.930Z,12.03
2018-06-05T12:24:33.294Z,14.67
2018-06-05T12:27:00.741Z,9.87
2018-06-05T12:29:28.069Z,10.10
2018-06-05T12:31:55.477Z,9.33
2018-06-05T12:34:22.820Z,11.20
2018-06-05T12:36:50.317Z,10.03
2018-06-05T12:39:18.050Z,11.60
2018-06-05T12:41:45.400Z,13.17
2018-06-05T12:44:12.742Z,14.10
2018-06-05T12:46:40.113Z,9.40
2018-06-05T12:49:07.460Z,9.67
2018-06-05T12:51:34.889Z,12.97
2018-06-05T12:54:02.238Z,13.20
2018-06-05T12:56:29.573Z,13.87
2018-06-05T12:58:57.075Z,10.67
2018-06-05T13:01:24.551Z,11.57
2018-06-05T13:03:51.875Z,9.73
2018-06-05T13:06:19.670Z,9.63
2018-06-05T13:08:46.982Z,11.37
2018-06-05T13:11:14.305Z,12.63
2018-06-05T13:13:41.918Z,12.37
2018-06-05T13:16:09.612Z,9.47
2018-06-05T13:18:37.109Z,13.37
2018-06-05T13:21:04.470Z,11.87
2018-06-05T13:23:31.837Z,10.20
2018-06-05T13:25:59.168Z,10.97
2018-06-05T13:28:26.618Z,8.87
2018-06-05T13:30:54.966Z,10.97
2018-06-05T13:33:22.286Z,9.40
2018-06-05T13:35:49.629Z,12.30
2018-06-05T13:38:16.976Z,13.23
2018-06-05T13:40:44.306Z,11.20
2018-06-05T13:43:11.649Z,12.00
2018-06-05T13:45:38.994Z,12.33
2018-06-05T13:48:06.317Z,13.97
2018-06-05T13:50:33.654Z,8.63
2018-06-05T13:53:00.992Z,9.80
2018-06-05T13:55:28.357Z,9.97
2018-06-05T13:57:55.823Z,16.40
2018-06-05T14:00:23.189Z,13.87
2018-06-05T14:02:50.551Z,12.33
2018-06-05T14:05:18.222Z,10.70
2018-06-05T14:07:45.541Z,9.53
2018-06-05T14:10:12.871Z,13.57
2018-06-05T14:12:40.189Z,14.53
2018-06-05T14:15:07.544Z,9.50
2018-06-05T14:17:34.887Z,10.70
2018-06-05T14:20:02.267Z,11.90
2018-06-05T14:22:29.601Z,14.50
2018-06-05T14:24:56.928Z,15.33
2018-06-05T14:27:24.257Z,11.30
2018-06-05T14:29:51.587Z,11.73
2018-06-05T14:32:18.901Z,17.30
2018-06-05T14:34:46.233Z,10.80
2018-06-05T14:37:13.573Z,10.20
2018-06-05T14:39:40.914Z,11.43
2018-06-05T14:42:08.339Z,9.30
2018-06-05T14:44:35.690Z,11.00
2018-06-05T14:47:03.013Z,10.43
2018-06-05T14:49:30.340Z,13.07
2018-06-05T14:51:57.705Z,12.53
2018-06-05T14:54:25.138Z,15.60
2018-06-05T14:56:52.621Z,11.83
2018-06-05T14:59:19.935Z,13.13
2018-06-05T15:01:47.309Z,12.53
2018-06-05T15:04:14.629Z,12.50
2018-06-05T15:06:41.935Z,11.47
2018-06-05T15:09:09.452Z,13.97
2018-06-05T15:11:36.773Z,9.10
2018-06-05T15:14:04.129Z,11.10
2018-06-05T15:16:31.460Z,11.90
2018-06-05T15:18:58.910Z,12.30
2018-06-05T15:21:26.254Z,12.80
2018-06-05T15:23:53.669Z,9.37
2018-06-05T15:26:21.070Z,12.93
2018-06-05T15:28:48.385Z,9.27
2018-06-05T15:31:15.709Z,9.40
2018-06-05T15:33:43.233Z,9.63
2018-06-05T15:36:10.573Z,8.53
2018-06-05T15:38:38.109Z,8.97
2018-06-05T15:41:05.467Z,9.40
2018-06-05T15:43:32.798Z,13.50
2018-06-05T15:46:00.237Z,10.60
2018-06-05T15:48:27.566Z,11.60
2018-06-05T15:50:54.890Z,7.77
2018-06-05T15:53:22.232Z,12.70
2018-06-05T15:55:49.686Z,10.57
2018-06-05T15:58:17.034Z,9.43
2018-06-05T16:00:44.340Z,16.90
2018-06-05T16:03:11.658Z,8.70
2018-06-05T16:05:38.985Z,8.23
2018-06-05T16:08:06.405Z,14.27
2018-06-05T16:10:33.781Z,11.60
2018-06-05T16:13:01.101Z,12.93
2018-06-05T16:15:28.461Z,10.53
2018-06-05T16:17:56.241Z,14.63
2018-06-05T16:20:23.564Z,10.93
2018-06-05T16:22:50.896Z,7.73
2018-06-05T16:25:18.277Z,7.03
2018-06-05T16:27:45.597Z,8.63
2018-06-05T16:30:12.918Z,11.70
2018-06-05T16:32:40.237Z,10.77
2018-06-05T16:35:07.605Z,9.30
2018-06-05T16:37:34.923Z,11.57
2018-06-05T16:40:02.375Z,12.77
2018-06-05T16:42:29.705Z,22.00
2018-06-05T16:44:57.022Z,10.43
2018-06-05T16:47:24.505Z,16.23
2018-06-05T16:49:51.777Z,13.87
2018-06-05T16:52:19.244Z,15.87
2018-06-05T16:54:46.577Z,13.67
2018-06-05T16:57:13.918Z,15.77
2018-06-05T16:59:41.233Z,13.83
2018-06-05T17:02:08.569Z,9.67
2018-06-05T17:04:35.940Z,13.07
2018-06-05T17:07:03.293Z,12.33
2018-06-05T17:09:30.825Z,12.07
2018-06-05T17:11:58.141Z,14.80
2018-06-05T17:14:25.466Z,13.27
2018-06-05T17:16:52.791Z,12.43
2018-06-05T17:19:20.153Z,13.97
2018-06-05T17:21:47.506Z,19.63
2018-06-05T17:24:14.825Z,13.90
2018-06-05T17:26:42.210Z,10.73
2018-06-05T17:29:09.574Z,11.87
2018-06-05T17:31:36.974Z,13.57
2018-06-05T17:34:04.500Z,14.53
2018-06-05T17:36:31.857Z,15.50
2018-06-05T17:38:59.328Z,13.67
2018-06-05T17:41:26.663Z,21.33
2018-06-05T17:43:54.534Z,8.87
2018-06-05T17:46:22.018Z,11.70
2018-06-05T17:48:49.353Z,12.50
2018-06-05T17:51:16.726Z,13.20
2018-06-05T17:53:44.050Z,9.93
2018-06-05T17:56:11.386Z,18.33
2018-06-05T17:58:38.729Z,10.67
2018-06-05T18:01:06.405Z,13.33
2018-06-05T18:03:33.741Z,12.90
2018-06-05T18:06:01.085Z,14.50
2018-06-05T18:08:28.473Z,15.43
2018-06-05T18:10:56.530Z,15.57
2018-06-05T18:13:23.873Z,16.20
2018-06-05T18:15:51.378Z,9.53
2018-06-05T18:18:21.030Z,12.43
2018-06-05T18:20:48.394Z,11.27
2018-06-05T18:23:15.878Z,15.33
2018-06-05T18:25:43.215Z,11.70
2018-06-05T18:28:10.574Z,12.10
2018-06-05T18:30:37.950Z,13.40
2018-06-05T18:33:05.346Z,10.83
2018-06-05T18:35:32.737Z,12.23
2018-06-05T18:38:00.137Z,12.60
2018-06-05T18:40:27.485Z,12.70
2018-06-05T18:42:54.788Z,15.83
2018-06-05T18:45:22.125Z,11.73
2018-06-05T18:47:49.497Z,14.10
2018-06-05T18:50:16.833Z,13.07
2018-06-05T18:52:44.293Z,11.73
2018-06-05T18:55:11.605Z,19.33
2018-06-05T18:57:38.945Z,14.33
2018-06-05T19:00:06.579Z,17.50
2018-06-05T19:02:33.917Z,16.10
2018-06-05T19:05:01.269Z,12.80
2018-06-05T19:07:28.618Z,14.50
2018-06-05T19:09:56.050Z,15.07
2018-06-05T19:12:23.446Z,12.53
2018-06-05T19:14:50.766Z,17.03
2018-06-05T19:17:18.157Z,12.83
2018-06-05T19:19:45.613Z,12.20
2018-06-05T19:22:12.934Z,13.87
2018-06-05T19:24:40.270Z,11.53
2018-06-05T19:27:07.692Z,17.60
2018-06-05T19:29:35.133Z,17.47
2018-06-05T19:32:02.463Z,12.17
2018-06-05T19:34:29.763Z,18.43
2018-06-05T19:36:57.195Z,15.20
2018-06-05T19:39:24.518Z,16.27
2018-06-05T19:41:51.894Z,17.10
2018-06-05T19:44:19.228Z,13.60
2018-06-05T19:46:46.619Z,13.73
2018-06-05T19:49:13.969Z,17.57
2018-06-05T19:51:41.313Z,14.13
2018-06-05T19:54:08.781Z,19.07
2018-06-05T19:56:36.490Z,44.50
2018-06-05T19:59:04.030Z,31.70
2018-06-05T20:01:31.497Z,25.03
2018-06-05T20:03:58.843Z,23.57
2018-06-05T20:06:26.194Z,24.87
2018-06-05T20:08:53.814Z,17.30
2018-06-05T20:11:22.721Z,19.55
2018-06-05T20:13:50.224Z,22.53
2018-06-05T20:16:17.573Z,18.03
2018-06-05T20:18:45.153Z,15.00
2018-06-05T20:21:12.517Z,22.70
2018-06-05T20:23:39.863Z,16.00
2018-06-05T20:26:07.213Z,14.73
2018-06-05T20:28:34.601Z,19.13
2018-06-05T20:31:02.014Z,22.63
2018-06-05T20:33:29.371Z,20.50
2018-06-05T20:35:57.150Z,19.20
2018-06-05T20:38:24.526Z,18.90
2018-06-05T20:40:51.925Z,17.67
2018-06-05T20:43:19.442Z,21.30
2018-06-05T20:45:46.874Z,16.53
2018-06-05T20:48:14.226Z,18.50
2018-06-05T20:50:41.570Z,19.30
2018-06-05T20:53:08.941Z,16.13
2018-06-05T20:55:36.266Z,18.93
2018-06-05T20:58:03.812Z,19.03
2018-06-05T21:00:31.126Z,20.67
2018-06-05T21:02:58.469Z,20.43
2018-06-05T21:05:26.437Z,14.83
2018-06-05T21:07:53.763Z,24.63
2018-06-05T21:10:21.086Z,18.33
2018-06-05T21:12:48.513Z,21.77
2018-06-05T21:15:15.891Z,22.90
2018-06-05T21:17:43.281Z,22.10
2018-06-05T21:20:11.022Z,17.70
2018-06-05T21:22:38.414Z,17.33
2018-06-05T21:25:05.828Z,18.43
2018-06-05T21:27:33.170Z,24.77
2018-06-05T21:30:00.582Z,19.73
2018-06-05T21:32:27.929Z,17.70
2018-06-05T21:34:55.301Z,18.30
2018-06-05T21:37:22.725Z,20.00
2018-06-05T21:39:50.063Z,12.80
2018-06-05T21:42:17.712Z,25.33
2018-06-05T21:44:45.029Z,21.20
2018-06-05T21:47:12.354Z,16.70
2018-06-05T21:49:39.765Z,19.23
2018-06-05T21:52:07.221Z,19.27
2018-06-05T21:54:34.676Z,16.23
2018-06-05T21:57:02.060Z,19.27
2018-06-05T21:59:29.493Z,23.90
2018-06-05T22:01:56.817Z,19.63
2018-06-05T22:04:24.223Z,24.03
2018-06-05T22:06:51.571Z,18.00
2018-06-05T22:09:18.976Z,18.83
2018-06-05T22:11:46.533Z,17.83
2018-06-05T22:14:13.857Z,18.33
2018-06-05T22:16:41.253Z,20.93
2018-06-05T22:19:08.649Z,18.33
2018-06-05T22:21:35.965Z,16.63
2018-06-05T22:24:03.797Z,19.37
2018-06-05T22:26:31.243Z,20.43
2018-06-05T22:28:58.995Z,25.77
2018-06-05T22:31:26.346Z,16.90
2018-06-05T22:33:53.723Z,18.77
2018-06-05T22:36:21.181Z,17.30
2018-06-05T22:38:48.621Z,24.47
2018-06-05T22:41:16.078Z,23.17
2018-06-05T22:43:43.469Z,23.87
2018-06-05T22:46:10.802Z,23.47
2018-06-05T22:48:38.150Z,19.17
2018-06-05T22:51:05.887Z,23.30
2018-06-05T22:53:33.278Z,20.27
2018-06-05T22:56:00.617Z,19.97
2018-06-05T22:58:28.009Z,22.23
2018-06-05T23:00:55.383Z,22.33
2018-06-05T23:03:22.853Z,19.17
2018-06-05T23:05:50.193Z,20.67
2018-06-05T23:08:17.538Z,19.27
2018-06-05T23:10:44.949Z,19.67
2018-06-05T23:13:12.301Z,19.90
2018-06-05T23:15:39.750Z,22.77
2018-06-05T23:18:07.085Z,23.13
2018-06-05T23:20:34.489Z,25.13
2018-06-05T23:23:01.842Z,17.87
2018-06-05T23:25:29.174Z,19.47
2018-06-05T23:27:56.554Z,19.27
2018-06-05T23:30:23.885Z,23.63
2018-06-05T23:32:51.558Z,21.70
2018-06-05T23:35:18.894Z,24.10
2018-06-05T23:37:46.229Z,23.60
2018-06-05T23:40:13.642Z,23.23
2018-06-05T23:42:40.969Z,20.93
2018-06-05T23:45:08.350Z,21.57
2018-06-05T23:47:35.677Z,25.77
2018-06-05T23:50:03.093Z,24.33
2018-06-05T23:52:30.501Z,21.63
2018-06-05T23:54:57.845Z,18.93
2018-06-05T23:57:25.191Z,20.10
2018-06-05T23:59:52.570Z,23.67
